sensor_id;sensor_type;location;lat;lon;timestamp;pressure;altitude;pressure_sealevel;temperature;humidity
64019;BME280;66942;52.138;5.216;2023-02-02T00:00:21;102130.0;;;9.64;76.23
64019;BME280;66942;52.138;5.216;2023-02-02T00:02:00;102130.0;;;9.64;76.19
64019;BME280;66942;52.138;5.216;2023-02-02T00:05:13;102130.0;;;9.66;76.38
64019;BME280;66942;52.138;5.216;2023-02-02T00:06:50;102134.0;;;9.78;75.99
64019;BME280;66942;52.138;5.216;2023-02-02T00:08:27;102138.0;;;9.81;75.89
64019;BME280;66942;52.138;5.216;2023-02-02T00:10:04;102134.0;;;9.8;76.03
64019;BME280;66942;52.138;5.216;2023-02-02T00:13:20;102139.0;;;9.81;76.13
64019;BME280;66942;52.138;5.216;2023-02-02T00:14:56;102144.0;;;9.83;76.02
64019;BME280;66942;52.138;5.216;2023-02-02T00:16:34;102147.0;;;9.66;76.63
64019;BME280;66942;52.138;5.216;2023-02-02T00:19:49;102148.0;;;9.78;76.38
64019;BME280;66942;52.138;5.216;2023-02-02T00:21:26;102153.0;;;9.57;77.02
64019;BME280;66942;52.138;5.216;2023-02-02T00:23:03;102150.0;;;9.73;76.63
64019;BME280;66942;52.138;5.216;2023-02-02T00:26:16;102148.0;;;9.73;76.58
64019;BME280;66942;52.138;5.216;2023-02-02T00:27:53;102145.0;;;9.69;76.8
64019;BME280;66942;52.138;5.216;2023-02-02T00:29:30;102139.0;;;9.63;77.13
64019;BME280;66942;52.138;5.216;2023-02-02T00:31:07;102138.0;;;9.52;77.41
64019;BME280;66942;52.138;5.216;2023-02-02T00:34:23;102135.0;;;9.67;76.81
64019;BME280;66942;52.138;5.216;2023-02-02T00:36:01;102144.0;;;9.84;76.2
64019;BME280;66942;52.138;5.216;2023-02-02T00:37:38;102145.0;;;9.65;76.69
64019;BME280;66942;52.138;5.216;2023-02-02T00:40:53;102145.0;;;9.6;76.63
64019;BME280;66942;52.138;5.216;2023-02-02T00:42:29;102149.0;;;9.64;76.83
64019;BME280;66942;52.138;5.216;2023-02-02T00:45:24;102147.0;;;9.68;76.58
64019;BME280;66942;52.138;5.216;2023-02-02T00:47:01;102148.0;;;9.66;76.42
64019;BME280;66942;52.138;5.216;2023-02-02T00:48:38;102152.0;;;9.49;76.91
64019;BME280;66942;52.138;5.216;2023-02-02T00:50:17;102147.0;;;9.55;76.72
64019;BME280;66942;52.138;5.216;2023-02-02T00:51:54;102148.0;;;9.59;76.69
64019;BME280;66942;52.138;5.216;2023-02-02T00:55:09;102156.0;;;9.55;76.45
64019;BME280;66942;52.138;5.216;2023-02-02T00:56:45;102152.0;;;9.31;76.67
64019;BME280;66942;52.138;5.216;2023-02-02T00:58:22;102155.0;;;9.28;76.41
64019;BME280;66942;52.138;5.216;2023-02-02T01:01:35;102152.0;;;9.42;76.09
64019;BME280;66942;52.138;5.216;2023-02-02T01:03:12;102153.0;;;9.35;76.27
64019;BME280;66942;52.138;5.216;2023-02-02T01:04:48;102153.0;;;9.38;76.47
64019;BME280;66942;52.138;5.216;2023-02-02T01:08:00;102153.0;;;9.16;76.69
64019;BME280;66942;52.138;5.216;2023-02-02T01:09:37;102146.0;;;9.39;76.19
64019;BME280;66942;52.138;5.216;2023-02-02T01:11:13;102156.0;;;9.38;76.3
64019;BME280;66942;52.138;5.216;2023-02-02T01:12:51;102156.0;;;9.15;76.89
64019;BME280;66942;52.138;5.216;2023-02-02T01:16:05;102159.0;;;9.22;76.42
64019;BME280;66942;52.138;5.216;2023-02-02T01:17:41;102163.0;;;9.28;76.25
64019;BME280;66942;52.138;5.216;2023-02-02T01:19:18;102157.0;;;9.17;76.44
64019;BME280;66942;52.138;5.216;2023-02-02T01:22:34;102160.0;;;9.31;76.16
64019;BME280;66942;52.138;5.216;2023-02-02T01:24:10;102160.0;;;9.23;76.27
64019;BME280;66942;52.138;5.216;2023-02-02T01:25:52;102161.0;;;9.17;76.42
64019;BME280;66942;52.138;5.216;2023-02-02T01:27:28;102163.0;;;9.07;76.83
64019;BME280;66942;52.138;5.216;2023-02-02T01:30:41;102166.0;;;9.13;76.66
64019;BME280;66942;52.138;5.216;2023-02-02T01:32:17;102166.0;;;9.03;77.06
64019;BME280;66942;52.138;5.216;2023-02-02T01:33:53;102162.0;;;8.97;77.3
64019;BME280;66942;52.138;5.216;2023-02-02T01:37:05;102155.0;;;8.92;77.25
64019;BME280;66942;52.138;5.216;2023-02-02T01:38:42;102152.0;;;9.05;76.91
64019;BME280;66942;52.138;5.216;2023-02-02T01:40:19;102153.0;;;9.01;77.05
64019;BME280;66942;52.138;5.216;2023-02-02T01:43:50;102155.0;;;9.02;76.91
64019;BME280;66942;52.138;5.216;2023-02-02T01:45:28;102147.0;;;9.11;76.53
64019;BME280;66942;52.138;5.216;2023-02-02T01:47:05;102156.0;;;9.22;76.22
64019;BME280;66942;52.138;5.216;2023-02-02T01:48:45;102155.0;;;9.22;76.22
64019;BME280;66942;52.138;5.216;2023-02-02T01:52:09;102160.0;;;9.17;76.36
64019;BME280;66942;52.138;5.216;2023-02-02T01:53:50;102158.0;;;9.08;76.83
64019;BME280;66942;52.138;5.216;2023-02-02T01:55:30;102170.0;;;9.21;76.44
64019;BME280;66942;52.138;5.216;2023-02-02T01:57:11;102166.0;;;9.24;76.16
64019;BME280;66942;52.138;5.216;2023-02-02T01:58:50;102164.0;;;9.22;76.36
64019;BME280;66942;52.138;5.216;2023-02-02T02:02:04;102164.0;;;8.99;77.22
64019;BME280;66942;52.138;5.216;2023-02-02T02:03:42;102161.0;;;9.13;76.8
64019;BME280;66942;52.138;5.216;2023-02-02T02:05:27;102162.0;;;9.09;77.03
64019;BME280;66942;52.138;5.216;2023-02-02T02:08:45;102162.0;;;8.89;77.74
64019;BME280;66942;52.138;5.216;2023-02-02T02:10:36;102166.0;;;8.98;77.38
64019;BME280;66942;52.138;5.216;2023-02-02T02:12:14;102163.0;;;8.96;77.69
64019;BME280;66942;52.138;5.216;2023-02-02T02:18:09;102149.0;;;9.02;77.53
64019;BME280;66942;52.138;5.216;2023-02-02T02:28:32;102150.0;;;9.22;77.3
64019;BME280;66942;52.138;5.216;2023-02-02T02:34:36;102143.0;;;9.14;77.83
64019;BME280;66942;52.138;5.216;2023-02-02T02:38:10;102147.0;;;9.14;77.89
64019;BME280;66942;52.138;5.216;2023-02-02T02:39:56;102145.0;;;9.27;77.63
64019;BME280;66942;52.138;5.216;2023-02-02T02:41:39;102138.0;;;9.16;78.08
64019;BME280;66942;52.138;5.216;2023-02-02T02:43:22;102139.0;;;8.97;78.31
64019;BME280;66942;52.138;5.216;2023-02-02T02:45:03;102132.0;;;9.19;77.89
64019;BME280;66942;52.138;5.216;2023-02-02T02:48:18;102127.0;;;9.26;77.62
64019;BME280;66942;52.138;5.216;2023-02-02T02:49:55;102116.0;;;9.32;77.13
64019;BME280;66942;52.138;5.216;2023-02-02T02:51:41;102118.0;;;9.4;76.91
64019;BME280;66942;52.138;5.216;2023-02-02T02:53:26;102120.0;;;9.23;77.49
64019;BME280;66942;52.138;5.216;2023-02-02T02:56:58;102119.0;;;9.23;77.28
64019;BME280;66942;52.138;5.216;2023-02-02T02:59:41;102130.0;;;9.03;77.87
64019;BME280;66942;52.138;5.216;2023-02-02T03:03:20;102127.0;;;9.27;77.16
64019;BME280;66942;52.138;5.216;2023-02-02T03:05:07;102130.0;;;9.11;77.66
64019;BME280;66942;52.138;5.216;2023-02-02T03:06:51;102126.0;;;9.23;77.12
64019;BME280;66942;52.138;5.216;2023-02-02T03:08:32;102130.0;;;9.25;77.08
64019;BME280;66942;52.138;5.216;2023-02-02T03:13:31;102131.0;;;8.98;77.89
64019;BME280;66942;52.138;5.216;2023-02-02T03:15:08;102141.0;;;9.16;77.3
64019;BME280;66942;52.138;5.216;2023-02-02T03:16:45;102145.0;;;9.27;77.12
64019;BME280;66942;52.138;5.216;2023-02-02T03:18:23;102148.0;;;9.24;77.17
64019;BME280;66942;52.138;5.216;2023-02-02T03:21:39;102151.0;;;9.4;76.67
64019;BME280;66942;52.138;5.216;2023-02-02T03:23:15;102153.0;;;9.34;76.87
64019;BME280;66942;52.138;5.216;2023-02-02T03:24:52;102157.0;;;9.32;76.92
64019;BME280;66942;52.138;5.216;2023-02-02T03:28:05;102156.0;;;9.4;76.7
64019;BME280;66942;52.138;5.216;2023-02-02T03:29:42;102160.0;;;9.44;76.66
64019;BME280;66942;52.138;5.216;2023-02-02T03:31:18;102158.0;;;9.39;76.7
64019;BME280;66942;52.138;5.216;2023-02-02T03:34:31;102157.0;;;9.55;76.33
64019;BME280;66942;52.138;5.216;2023-02-02T03:36:08;102158.0;;;9.47;76.27
64019;BME280;66942;52.138;5.216;2023-02-02T03:37:45;102159.0;;;9.44;76.49
64019;BME280;66942;52.138;5.216;2023-02-02T03:39:22;102163.0;;;9.48;76.44
64019;BME280;66942;52.138;5.216;2023-02-02T03:42:34;102152.0;;;9.64;75.84
64019;BME280;66942;52.138;5.216;2023-02-02T03:44:10;102158.0;;;9.41;76.45
64019;BME280;66942;52.138;5.216;2023-02-02T03:45:46;102155.0;;;9.48;76.33
64019;BME280;66942;52.138;5.216;2023-02-02T03:48:58;102157.0;;;9.27;76.69
64019;BME280;66942;52.138;5.216;2023-02-02T03:50:35;102157.0;;;9.31;76.55
64019;BME280;66942;52.138;5.216;2023-02-02T03:52:12;102162.0;;;9.58;76.02
64019;BME280;66942;52.138;5.216;2023-02-02T03:55:25;102159.0;;;9.6;75.89
64019;BME280;66942;52.138;5.216;2023-02-02T03:57:01;102157.0;;;9.66;75.58
64019;BME280;66942;52.138;5.216;2023-02-02T03:58:37;102161.0;;;9.49;75.69
64019;BME280;66942;52.138;5.216;2023-02-02T04:00:14;102164.0;;;9.41;75.83
64019;BME280;66942;52.138;5.216;2023-02-02T04:03:27;102150.0;;;9.42;75.78
64019;BME280;66942;52.138;5.216;2023-02-02T04:05:03;102157.0;;;9.4;75.92
64019;BME280;66942;52.138;5.216;2023-02-02T04:06:40;102150.0;;;9.65;75.37
64019;BME280;66942;52.138;5.216;2023-02-02T04:09:52;102143.0;;;9.51;75.48
64019;BME280;66942;52.138;5.216;2023-02-02T04:11:28;102149.0;;;9.57;75.36
64019;BME280;66942;52.138;5.216;2023-02-02T04:13:04;102142.0;;;9.49;75.55
64019;BME280;66942;52.138;5.216;2023-02-02T04:16:16;102153.0;;;9.68;74.97
64019;BME280;66942;52.138;5.216;2023-02-02T04:17:52;102155.0;;;9.63;75.33
64019;BME280;66942;52.138;5.216;2023-02-02T04:19:29;102149.0;;;9.43;75.58
64019;BME280;66942;52.138;5.216;2023-02-02T04:21:05;102147.0;;;9.46;75.27
64019;BME280;66942;52.138;5.216;2023-02-02T04:24:20;102142.0;;;9.61;74.94
64019;BME280;66942;52.138;5.216;2023-02-02T04:25:58;102139.0;;;9.71;74.86
64019;BME280;66942;52.138;5.216;2023-02-02T04:27:34;102135.0;;;9.77;74.58
64019;BME280;66942;52.138;5.216;2023-02-02T04:30:47;102141.0;;;9.73;74.56
64019;BME280;66942;52.138;5.216;2023-02-02T04:32:23;102155.0;;;9.73;74.58
64019;BME280;66942;52.138;5.216;2023-02-02T04:33:59;102144.0;;;9.66;74.7
64019;BME280;66942;52.138;5.216;2023-02-02T04:37:12;102144.0;;;9.49;75.08
64019;BME280;66942;52.138;5.216;2023-02-02T04:38:49;102143.0;;;9.77;74.41
64019;BME280;66942;52.138;5.216;2023-02-02T04:40:25;102153.0;;;9.55;74.97
64019;BME280;66942;52.138;5.216;2023-02-02T04:42:02;102145.0;;;9.8;74.39
64019;BME280;66942;52.138;5.216;2023-02-02T04:45:15;102147.0;;;9.65;74.36
64019;BME280;66942;52.138;5.216;2023-02-02T04:46:52;102148.0;;;9.78;74.37
64019;BME280;66942;52.138;5.216;2023-02-02T04:48:28;102156.0;;;9.61;74.5
64019;BME280;66942;52.138;5.216;2023-02-02T04:51:43;102149.0;;;9.82;74.11
64019;BME280;66942;52.138;5.216;2023-02-02T04:53:19;102156.0;;;9.65;74.44
64019;BME280;66942;52.138;5.216;2023-02-02T04:54:56;102157.0;;;9.71;74.39
64019;BME280;66942;52.138;5.216;2023-02-02T04:58:09;102157.0;;;9.78;74.16
64019;BME280;66942;52.138;5.216;2023-02-02T04:59:45;102166.0;;;9.89;73.97
64019;BME280;66942;52.138;5.216;2023-02-02T05:01:21;102166.0;;;9.88;73.78
64019;BME280;66942;52.138;5.216;2023-02-02T05:02:59;102167.0;;;9.75;73.89
64019;BME280;66942;52.138;5.216;2023-02-02T05:06:12;102174.0;;;9.99;73.7
64019;BME280;66942;52.138;5.216;2023-02-02T05:07:48;102174.0;;;9.77;73.94
64019;BME280;66942;52.138;5.216;2023-02-02T05:09:25;102181.0;;;9.81;74.16
64019;BME280;66942;52.138;5.216;2023-02-02T05:12:42;102185.0;;;9.75;74.33
64019;BME280;66942;52.138;5.216;2023-02-02T05:14:19;102185.0;;;9.73;74.47
64019;BME280;66942;52.138;5.216;2023-02-02T05:15:55;102182.0;;;9.73;74.33
64019;BME280;66942;52.138;5.216;2023-02-02T05:19:09;102180.0;;;9.67;74.75
64019;BME280;66942;52.138;5.216;2023-02-02T05:20:48;102171.0;;;9.78;74.33
64019;BME280;66942;52.138;5.216;2023-02-02T05:22:25;102170.0;;;9.89;73.94
64019;BME280;66942;52.138;5.216;2023-02-02T05:24:03;102173.0;;;9.94;73.77
64019;BME280;66942;52.138;5.216;2023-02-02T05:27:15;102175.0;;;10.0;73.92
64019;BME280;66942;52.138;5.216;2023-02-02T05:28:52;102171.0;;;10.03;73.83
64019;BME280;66942;52.138;5.216;2023-02-02T05:30:28;102176.0;;;10.05;73.78
64019;BME280;66942;52.138;5.216;2023-02-02T05:33:41;102178.0;;;9.75;74.36
64019;BME280;66942;52.138;5.216;2023-02-02T05:35:18;102186.0;;;9.69;74.47
64019;BME280;66942;52.138;5.216;2023-02-02T05:36:54;102177.0;;;9.65;74.61
64019;BME280;66942;52.138;5.216;2023-02-02T05:38:30;102181.0;;;9.84;74.19
64019;BME280;66942;52.138;5.216;2023-02-02T05:41:45;102180.0;;;9.44;75.19
64019;BME280;66942;52.138;5.216;2023-02-02T05:43:23;102175.0;;;9.8;74.12
64019;BME280;66942;52.138;5.216;2023-02-02T05:45:00;102178.0;;;9.61;74.66
64019;BME280;66942;52.138;5.216;2023-02-02T05:48:13;102172.0;;;9.81;74.19
64019;BME280;66942;52.138;5.216;2023-02-02T05:49:50;102173.0;;;9.86;73.92
64019;BME280;66942;52.138;5.216;2023-02-02T05:51:28;102177.0;;;9.83;73.95
64019;BME280;66942;52.138;5.216;2023-02-02T05:53:07;102184.0;;;9.93;73.8
64019;BME280;66942;52.138;5.216;2023-02-02T05:56:20;102188.0;;;9.74;74.42
64019;BME280;66942;52.138;5.216;2023-02-02T05:57:56;102187.0;;;9.76;74.72
64019;BME280;66942;52.138;5.216;2023-02-02T05:59:32;102186.0;;;9.86;74.66
64019;BME280;66942;52.138;5.216;2023-02-02T06:02:44;102189.0;;;9.73;75.16
64019;BME280;66942;52.138;5.216;2023-02-02T06:04:21;102191.0;;;9.77;75.08
64019;BME280;66942;52.138;5.216;2023-02-02T06:05:57;102190.0;;;9.89;75.02
64019;BME280;66942;52.138;5.216;2023-02-02T06:09:10;102192.0;;;9.83;75.27
64019;BME280;66942;52.138;5.216;2023-02-02T06:10:46;102185.0;;;9.89;75.05
64019;BME280;66942;52.138;5.216;2023-02-02T06:12:23;102186.0;;;9.97;75.03
64019;BME280;66942;52.138;5.216;2023-02-02T06:15:35;102193.0;;;9.81;75.3
64019;BME280;66942;52.138;5.216;2023-02-02T06:17:13;102194.0;;;9.89;75.23
64019;BME280;66942;52.138;5.216;2023-02-02T06:18:49;102194.0;;;9.93;75.19
64019;BME280;66942;52.138;5.216;2023-02-02T06:20:26;102196.0;;;9.89;75.2
64019;BME280;66942;52.138;5.216;2023-02-02T06:23:44;102202.0;;;9.81;75.8
64019;BME280;66942;52.138;5.216;2023-02-02T06:25:21;102202.0;;;9.83;75.83
64019;BME280;66942;52.138;5.216;2023-02-02T06:26:58;102207.0;;;9.65;76.22
64019;BME280;66942;52.138;5.216;2023-02-02T06:30:12;102209.0;;;9.64;76.25
64019;BME280;66942;52.138;5.216;2023-02-02T06:31:49;102213.0;;;9.68;76.33
64019;BME280;66942;52.138;5.216;2023-02-02T06:33:25;102211.0;;;9.77;76.16
64019;BME280;66942;52.138;5.216;2023-02-02T06:35:03;102216.0;;;9.77;76.03
64019;BME280;66942;52.138;5.216;2023-02-02T06:38:18;102211.0;;;9.68;76.45
64019;BME280;66942;52.138;5.216;2023-02-02T06:39:54;102218.0;;;9.8;76.19
64019;BME280;66942;52.138;5.216;2023-02-02T06:41:31;102220.0;;;9.73;76.39
64019;BME280;66942;52.138;5.216;2023-02-02T06:44:44;102222.0;;;9.85;76.06
64019;BME280;66942;52.138;5.216;2023-02-02T06:46:21;102225.0;;;9.75;76.52
64019;BME280;66942;52.138;5.216;2023-02-02T06:47:57;102236.0;;;9.55;77.03
64019;BME280;66942;52.138;5.216;2023-02-02T06:49:35;102235.0;;;9.72;76.52
64019;BME280;66942;52.138;5.216;2023-02-02T06:52:50;102237.0;;;9.63;76.84
64019;BME280;66942;52.138;5.216;2023-02-02T06:54:26;102246.0;;;9.48;77.39
64019;BME280;66942;52.138;5.216;2023-02-02T06:56:04;102244.0;;;9.6;77.06
64019;BME280;66942;52.138;5.216;2023-02-02T06:59:19;102246.0;;;9.64;77.13
64019;BME280;66942;52.138;5.216;2023-02-02T07:01:00;102238.0;;;9.3;77.92
64019;BME280;66942;52.138;5.216;2023-02-02T07:02:37;102248.0;;;9.36;78.09
64019;BME280;66942;52.138;5.216;2023-02-02T07:04:15;102245.0;;;9.39;77.77
64019;BME280;66942;52.138;5.216;2023-02-02T07:07:30;102234.0;;;9.4;77.86
64019;BME280;66942;52.138;5.216;2023-02-02T07:09:07;102230.0;;;9.55;77.41
64019;BME280;66942;52.138;5.216;2023-02-02T07:10:44;102232.0;;;9.51;77.74
64019;BME280;66942;52.138;5.216;2023-02-02T07:13:56;102232.0;;;9.26;78.55
64019;BME280;66942;52.138;5.216;2023-02-02T07:15:33;102232.0;;;9.36;78.44
64019;BME280;66942;52.138;5.216;2023-02-02T07:17:09;102230.0;;;9.51;78.09
64019;BME280;66942;52.138;5.216;2023-02-02T07:20:23;102230.0;;;9.49;78.02
64019;BME280;66942;52.138;5.216;2023-02-02T07:21:59;102238.0;;;9.63;77.64
64019;BME280;66942;52.138;5.216;2023-02-02T07:23:35;102236.0;;;9.61;77.72
64019;BME280;66942;52.138;5.216;2023-02-02T07:25:11;102238.0;;;9.4;78.38
64019;BME280;66942;52.138;5.216;2023-02-02T07:28:25;102243.0;;;9.71;77.2
64019;BME280;66942;52.138;5.216;2023-02-02T07:30:04;102244.0;;;9.63;77.41
64019;BME280;66942;52.138;5.216;2023-02-02T07:31:40;102251.0;;;9.6;77.53
64019;BME280;66942;52.138;5.216;2023-02-02T07:34:52;102258.0;;;9.49;77.77
64019;BME280;66942;52.138;5.216;2023-02-02T07:36:29;102263.0;;;9.48;77.61
64019;BME280;66942;52.138;5.216;2023-02-02T07:38:04;102263.0;;;9.55;77.62
64019;BME280;66942;52.138;5.216;2023-02-02T07:41:19;102261.0;;;9.4;77.83
64019;BME280;66942;52.138;5.216;2023-02-02T07:42:59;102268.0;;;9.56;77.22
64019;BME280;66942;52.138;5.216;2023-02-02T07:44:36;102265.0;;;9.68;76.97
64019;BME280;66942;52.138;5.216;2023-02-02T07:46:14;102266.0;;;9.48;77.41
64019;BME280;66942;52.138;5.216;2023-02-02T07:49:31;102270.0;;;9.63;76.61
64019;BME280;66942;52.138;5.216;2023-02-02T07:51:12;102271.0;;;9.72;76.37
64019;BME280;66942;52.138;5.216;2023-02-02T07:52:49;102271.0;;;9.74;76.08
64019;BME280;66942;52.138;5.216;2023-02-02T07:54:26;102280.0;;;9.74;76.0
64019;BME280;66942;52.138;5.216;2023-02-02T07:57:44;102284.0;;;9.48;76.53
64019;BME280;66942;52.138;5.216;2023-02-02T07:59:21;102284.0;;;9.32;76.95
64019;BME280;66942;52.138;5.216;2023-02-02T08:00:59;102286.0;;;9.59;76.14
64019;BME280;66942;52.138;5.216;2023-02-02T08:04:12;102288.0;;;9.68;76.05
64019;BME280;66942;52.138;5.216;2023-02-02T08:05:50;102290.0;;;9.74;76.03
64019;BME280;66942;52.138;5.216;2023-02-02T08:07:26;102296.0;;;9.64;76.11
64019;BME280;66942;52.138;5.216;2023-02-02T08:10:46;102294.0;;;9.56;75.87
64019;BME280;66942;52.138;5.216;2023-02-02T08:12:23;102291.0;;;9.68;75.53
64019;BME280;66942;52.138;5.216;2023-02-02T08:14:02;102290.0;;;9.44;76.27
64019;BME280;66942;52.138;5.216;2023-02-02T08:15:39;102290.0;;;9.6;75.77
64019;BME280;66942;52.138;5.216;2023-02-02T08:18:52;102293.0;;;9.57;75.52
64019;BME280;66942;52.138;5.216;2023-02-02T08:20:29;102294.0;;;9.6;75.63
64019;BME280;66942;52.138;5.216;2023-02-02T08:22:05;102301.0;;;9.63;75.56
64019;BME280;66942;52.138;5.216;2023-02-02T08:25:18;102303.0;;;9.71;75.17
64019;BME280;66942;52.138;5.216;2023-02-02T08:26:55;102305.0;;;9.8;74.99
64019;BME280;66942;52.138;5.216;2023-02-02T08:28:31;102312.0;;;9.82;74.94
64019;BME280;66942;52.138;5.216;2023-02-02T08:30:09;102311.0;;;9.84;75.02
64019;BME280;66942;52.138;5.216;2023-02-02T08:33:22;102320.0;;;9.82;74.72
64019;BME280;66942;52.138;5.216;2023-02-02T08:34:58;102321.0;;;9.8;74.48
64019;BME280;66942;52.138;5.216;2023-02-02T08:36:35;102326.0;;;9.84;74.58
64019;BME280;66942;52.138;5.216;2023-02-02T08:39:47;102326.0;;;9.96;74.48
64019;BME280;66942;52.138;5.216;2023-02-02T08:41:23;102324.0;;;9.74;74.86
64019;BME280;66942;52.138;5.216;2023-02-02T08:42:59;102331.0;;;9.93;74.23
64019;BME280;66942;52.138;5.216;2023-02-02T08:46:13;102332.0;;;9.92;74.39
64019;BME280;66942;52.138;5.216;2023-02-02T08:47:52;102330.0;;;10.02;74.13
64019;BME280;66942;52.138;5.216;2023-02-02T08:49:29;102331.0;;;9.73;74.8
64019;BME280;66942;52.138;5.216;2023-02-02T08:51:06;102335.0;;;9.82;74.47
64019;BME280;66942;52.138;5.216;2023-02-02T08:54:20;102337.0;;;10.03;73.69
64019;BME280;66942;52.138;5.216;2023-02-02T08:55:58;102341.0;;;10.06;73.53
64019;BME280;66942;52.138;5.216;2023-02-02T08:57:35;102345.0;;;10.21;73.41
64019;BME280;66942;52.138;5.216;2023-02-02T09:00:47;102342.0;;;9.92;73.83
64019;BME280;66942;52.138;5.216;2023-02-02T09:02:23;102342.0;;;9.98;73.72
64019;BME280;66942;52.138;5.216;2023-02-02T09:04:01;102349.0;;;9.98;73.66
64019;BME280;66942;52.138;5.216;2023-02-02T09:05:39;102355.0;;;9.98;73.36
64019;BME280;66942;52.138;5.216;2023-02-02T09:08:51;102357.0;;;10.15;73.05
64019;BME280;66942;52.138;5.216;2023-02-02T09:10:33;102353.0;;;10.26;72.92
64019;BME280;66942;52.138;5.216;2023-02-02T09:12:11;102359.0;;;10.29;72.8
64019;BME280;66942;52.138;5.216;2023-02-02T09:15:28;102362.0;;;10.4;72.78
64019;BME280;66942;52.138;5.216;2023-02-02T09:17:05;102362.0;;;10.55;72.42
64019;BME280;66942;52.138;5.216;2023-02-02T09:18:42;102362.0;;;10.33;72.91
64019;BME280;66942;52.138;5.216;2023-02-02T09:20:19;102370.0;;;10.25;72.36
64019;BME280;66942;52.138;5.216;2023-02-02T09:23:35;102378.0;;;10.35;72.66
64019;BME280;66942;52.138;5.216;2023-02-02T09:25:13;102371.0;;;10.36;72.78
64019;BME280;66942;52.138;5.216;2023-02-02T09:26:50;102374.0;;;10.51;72.66
64019;BME280;66942;52.138;5.216;2023-02-02T09:30:03;102376.0;;;10.46;72.5
64019;BME280;66942;52.138;5.216;2023-02-02T09:31:39;102380.0;;;10.55;72.56
64019;BME280;66942;52.138;5.216;2023-02-02T09:33:16;102380.0;;;10.58;72.64
64019;BME280;66942;52.138;5.216;2023-02-02T09:34:52;102387.0;;;10.45;72.92
64019;BME280;66942;52.138;5.216;2023-02-02T09:38:06;102386.0;;;10.58;72.74
64019;BME280;66942;52.138;5.216;2023-02-02T09:39:42;102392.0;;;10.69;72.52
64019;BME280;66942;52.138;5.216;2023-02-02T09:41:32;102393.0;;;10.55;72.17
64019;BME280;66942;52.138;5.216;2023-02-02T09:43:38;102392.0;;;10.72;72.14
64019;BME280;66942;52.138;5.216;2023-02-02T09:45:27;102390.0;;;10.57;72.06
64019;BME280;66942;52.138;5.216;2023-02-02T09:48:57;102396.0;;;10.58;72.16
64019;BME280;66942;52.138;5.216;2023-02-02T09:50:41;102392.0;;;10.48;72.24
64019;BME280;66942;52.138;5.216;2023-02-02T09:52:25;102393.0;;;10.72;71.95
64019;BME280;66942;52.138;5.216;2023-02-02T09:54:10;102397.0;;;10.42;72.48
64019;BME280;66942;52.138;5.216;2023-02-02T09:55:54;102400.0;;;10.59;72.31
64019;BME280;66942;52.138;5.216;2023-02-02T09:59:22;102391.0;;;10.44;72.97
64019;BME280;66942;52.138;5.216;2023-02-02T10:01:05;102396.0;;;10.48;72.62
64019;BME280;66942;52.138;5.216;2023-02-02T10:02:44;102394.0;;;10.64;72.63
64019;BME280;66942;52.138;5.216;2023-02-02T10:04:28;102402.0;;;10.66;72.69
64019;BME280;66942;52.138;5.216;2023-02-02T10:08:00;102398.0;;;10.69;72.58
64019;BME280;66942;52.138;5.216;2023-02-02T10:09:46;102404.0;;;10.73;72.44
64019;BME280;66942;52.138;5.216;2023-02-02T10:11:29;102402.0;;;10.55;72.8
64019;BME280;66942;52.138;5.216;2023-02-02T10:13:15;102411.99999999999;;;10.66;72.86
64019;BME280;66942;52.138;5.216;2023-02-02T10:14:55;102416.00000000001;;;10.8;72.45
64019;BME280;66942;52.138;5.216;2023-02-02T10:18:19;102419.0;;;10.7;72.05
64019;BME280;66942;52.138;5.216;2023-02-02T10:20:05;102417.0;;;10.82;71.97
64019;BME280;66942;52.138;5.216;2023-02-02T10:21:56;102423.0;;;10.93;72.3
64019;BME280;66942;52.138;5.216;2023-02-02T10:23:39;102421.0;;;10.97;71.91
64019;BME280;66942;52.138;5.216;2023-02-02T10:25:18;102426.0;;;10.74;71.95
64019;BME280;66942;52.138;5.216;2023-02-02T10:28:42;102421.0;;;10.79;72.59
64019;BME280;66942;52.138;5.216;2023-02-02T10:30:38;102421.0;;;10.89;71.61
64019;BME280;66942;52.138;5.216;2023-02-02T10:32:24;102429.0;;;10.77;71.49
64019;BME280;66942;52.138;5.216;2023-02-02T10:34:10;102430.0;;;10.92;71.13
64019;BME280;66942;52.138;5.216;2023-02-02T10:35:54;102429.0;;;10.88;71.45
64019;BME280;66942;52.138;5.216;2023-02-02T10:39:26;102431.0;;;10.99;71.73
64019;BME280;66942;52.138;5.216;2023-02-02T10:41:16;102433.0;;;10.91;71.08
64019;BME280;66942;52.138;5.216;2023-02-02T10:44:08;102440.00000000001;;;11.01;71.19
64019;BME280;66942;52.138;5.216;2023-02-02T10:45:51;102434.99999999999;;;11.0;70.56
64019;BME280;66942;52.138;5.216;2023-02-02T10:47:32;102440.00000000001;;;11.01;70.7
64019;BME280;66942;52.138;5.216;2023-02-02T10:49:19;102440.00000000001;;;10.99;70.62
64019;BME280;66942;52.138;5.216;2023-02-02T10:51:01;102447.0;;;10.95;71.22
64019;BME280;66942;52.138;5.216;2023-02-02T10:52:44;102449.0;;;11.02;71.0
64019;BME280;66942;52.138;5.216;2023-02-02T10:54:33;102452.0;;;10.93;71.16
64019;BME280;66942;52.138;5.216;2023-02-02T10:56:39;102448.0;;;10.91;71.11
64019;BME280;66942;52.138;5.216;2023-02-02T11:00:07;102441.00000000001;;;10.81;71.05
64019;BME280;66942;52.138;5.216;2023-02-02T11:01:50;102433.0;;;10.7;71.27
64019;BME280;66942;52.138;5.216;2023-02-02T11:03:27;102433.99999999999;;;10.77;71.27
64019;BME280;66942;52.138;5.216;2023-02-02T11:06:54;102439.00000000001;;;10.72;70.89
64019;BME280;66942;52.138;5.216;2023-02-02T11:08:40;102433.0;;;10.92;70.72
64019;BME280;66942;52.138;5.216;2023-02-02T11:10:17;102436.99999999999;;;10.98;70.72
64019;BME280;66942;52.138;5.216;2023-02-02T11:11:59;102432.0;;;10.97;70.87
64019;BME280;66942;52.138;5.216;2023-02-02T11:13:41;102434.99999999999;;;11.09;70.72
64019;BME280;66942;52.138;5.216;2023-02-02T11:15:25;102432.0;;;11.08;70.09
64019;BME280;66942;52.138;5.216;2023-02-02T11:18:42;102433.99999999999;;;11.09;69.94
64019;BME280;66942;52.138;5.216;2023-02-02T11:20:23;102430.0;;;10.95;69.69
64019;BME280;66942;52.138;5.216;2023-02-02T11:22:23;102439.00000000001;;;11.05;70.41
64019;BME280;66942;52.138;5.216;2023-02-02T11:24:03;102433.99999999999;;;11.11;70.25
64019;BME280;66942;52.138;5.216;2023-02-02T11:27:20;102431.0;;;11.1;69.8
64019;BME280;66942;52.138;5.216;2023-02-02T11:28:57;102429.0;;;11.09;69.47